Time;durP1;ratioP1;P1;durP2;ratioP2;P2;SDS_P1;SDS_P2;PMS_P1;PMS_P2;Temp;Humidity;BMP_temperature;BMP_pressure;BME280_temperature;BME280_humidity;BME280_pressure;Samples;Min_cycle;Max_cycle;Signal;HPM_P1;HPM_P2
2021/01/28 00:00:34;;;;;;;38.13;20.58;;;8.00;84.50;;;;;;4880213;29;20061;-92
2021/01/28 00:03:00;;;;;;;38.67;19.30;;;8.00;84.50;;;;;;4880079;29;20081;-92
2021/01/28 00:05:30;;;;;;;40.13;19.92;;;8.00;84.50;;;;;;4879758;29;20033;-92
2021/01/28 00:07:56;;;;;;;38.70;18.85;;;8.00;84.50;;;;;;4879948;29;20029;-91
2021/01/28 00:10:23;;;;;;;36.75;18.30;;;8.00;84.50;;;;;;4879820;29;20052;-92
2021/01/28 00:12:51;;;;;;;35.42;18.60;;;8.00;84.50;;;;;;4879387;29;20040;-92
2021/01/28 00:15:19;;;;;;;35.50;18.13;;;8.00;84.50;;;;;;4879818;29;20526;-91
2021/01/28 00:17:45;;;;;;;34.00;16.90;;;8.00;84.50;;;;;;4880010;29;20036;-91
2021/01/28 00:20:20;;;;;;;35.63;17.88;;;8.00;84.50;;;;;;4879472;29;20044;-93
2021/01/28 00:22:46;;;;;;;33.95;16.65;;;8.00;84.40;;;;;;4879943;29;20029;-92
2021/01/28 00:25:15;;;;;;;33.90;16.85;;;8.00;84.40;;;;;;4879480;29;20033;-90
2021/01/28 00:27:40;;;;;;;28.42;15.27;;;8.00;84.40;;;;;;4879472;29;20116;-91
2021/01/28 00:30:09;;;;;;;33.33;16.02;;;8.00;84.40;;;;;;4879335;29;20133;-92
2021/01/28 00:32:35;;;;;;;26.67;14.73;;;8.00;84.40;;;;;;4880064;29;20025;-92
2021/01/28 00:35:01;;;;;;;29.77;15.43;;;8.00;84.30;;;;;;4880117;29;20026;-91
2021/01/28 00:37:27;;;;;;;31.83;16.25;;;8.00;84.20;;;;;;4879522;29;20061;-92
2021/01/28 00:39:52;;;;;;;27.65;16.23;;;8.00;84.20;;;;;;4863898;29;20057;-92
2021/01/28 00:42:18;;;;;;;32.28;17.60;;;8.00;84.20;;;;;;4864169;29;20033;-94
2021/01/28 00:44:44;;;;;;;28.92;15.52;;;8.00;84.20;;;;;;4863767;29;20142;-92
2021/01/28 00:47:09;;;;;;;27.92;15.02;;;8.10;84.30;;;;;;4879199;29;20036;-91
2021/01/28 00:49:35;;;;;;;31.25;15.68;;;8.00;84.20;;;;;;4879325;29;20029;-92
2021/01/28 00:52:01;;;;;;;26.45;14.13;;;8.10;84.30;;;;;;4884323;29;20028;-92
2021/01/28 00:54:27;;;;;;;28.38;15.40;;;8.00;84.20;;;;;;4897476;29;20176;-92
2021/01/28 00:56:52;;;;;;;26.90;15.57;;;8.00;84.20;;;;;;4898016;29;20032;-92
2021/01/28 00:59:18;;;;;;;32.08;15.52;;;8.00;84.10;;;;;;4897777;29;20052;-91
2021/01/28 01:01:43;;;;;;;25.67;14.55;;;8.00;84.10;;;;;;4882964;29;20059;-91
2021/01/28 01:04:09;;;;;;;30.35;15.25;;;8.00;84.70;;;;;;4882242;29;20032;-92
2021/01/28 01:06:35;;;;;;;27.73;15.27;;;8.00;84.10;;;;;;4897892;29;20471;-91
2021/01/28 01:09:00;;;;;;;27.35;14.57;;;8.00;84.10;;;;;;4882201;29;20032;-92
2021/01/28 01:11:26;;;;;;;29.90;15.65;;;8.00;84.00;;;;;;4898268;29;20062;-92
2021/01/28 01:13:52;;;;;;;27.48;15.88;;;8.00;84.00;;;;;;4881908;29;20032;-91
2021/01/28 01:16:19;;;;;;;29.50;14.93;;;8.00;84.00;;;;;;4897909;29;20476;-91
2021/01/28 01:18:45;;;;;;;24.63;14.13;;;8.00;84.00;;;;;;4897467;29;20391;-92
2021/01/28 01:21:10;;;;;;;24.75;14.52;;;8.00;84.00;;;;;;4897632;29;20037;-91
2021/01/28 01:23:36;;;;;;;30.35;15.43;;;8.00;84.00;;;;;;4878511;29;20125;-92
2021/01/28 01:26:02;;;;;;;27.70;15.73;;;8.00;83.90;;;;;;4878905;29;20093;-91
2021/01/28 01:28:29;;;;;;;25.40;14.80;;;8.00;84.00;;;;;;4863310;29;20040;-92
2021/01/28 01:30:56;;;;;;;24.10;14.77;;;8.00;84.00;;;;;;4877926;29;20124;-92
2021/01/28 01:33:23;;;;;;;22.73;13.20;;;8.00;84.00;;;;;;4878519;29;20033;-92
2021/01/28 01:35:49;;;;;;;27.48;15.52;;;8.00;84.00;;;;;;4878648;29;20025;-92
2021/01/28 01:38:15;;;;;;;24.75;14.52;;;8.00;84.00;;;;;;4893113;29;20387;-93
2021/01/28 01:40:54;;;;;;;22.10;12.85;;;8.00;83.90;;;;;;4896817;29;20057;-91
2021/01/28 01:43:20;;;;;;;25.83;14.52;;;8.00;83.90;;;;;;4896733;29;20028;-91
2021/01/28 01:45:55;;;;;;;24.75;14.25;;;8.00;83.90;;;;;;4897369;29;20064;-91
2021/01/28 01:48:24;;;;;;;29.23;15.45;;;8.00;83.90;;;;;;4897110;29;20032;-91
2021/01/28 01:50:58;;;;;;;22.65;13.63;;;8.00;83.90;;;;;;4896995;29;20386;-92
2021/01/28 01:53:36;;;;;;;22.27;13.27;;;8.00;83.90;;;;;;4897546;29;20116;-92
2021/01/28 01:56:09;;;;;;;20.58;12.20;;;7.90;83.90;;;;;;4897187;29;20029;-91
2021/01/28 01:58:58;;;;;;;23.92;12.98;;;7.90;83.90;;;;;;4897115;29;20483;-93
2021/01/28 02:01:27;;;;;;;23.45;13.48;;;7.90;83.90;;;;;;4893881;29;20072;-93
2021/01/28 02:03:53;;;;;;;26.42;15.15;;;7.90;83.90;;;;;;4897409;29;20052;-91
2021/01/28 02:06:43;;;;;;;24.95;13.68;;;7.90;83.90;;;;;;4880973;29;20043;-91
2021/01/28 02:09:10;;;;;;;20.63;12.40;;;7.90;84.00;;;;;;4877967;29;20033;-93
2021/01/28 02:11:37;;;;;;;21.05;12.45;;;7.90;84.00;;;;;;4877992;29;20064;-92
2021/01/28 02:14:07;;;;;;;22.30;12.63;;;7.90;84.00;;;;;;4878031;29;20061;-92
2021/01/28 02:16:37;;;;;;;22.00;13.48;;;7.90;84.00;;;;;;4878147;29;20069;-92
2021/01/28 02:19:12;;;;;;;22.00;12.70;;;7.90;84.00;;;;;;4877784;29;20037;-91
2021/01/28 02:21:38;;;;;;;22.95;12.68;;;7.90;84.00;;;;;;4878496;29;20036;-93
2021/01/28 02:24:14;;;;;;;23.23;13.48;;;7.90;83.90;;;;;;4862281;29;20488;-91
2021/01/28 02:26:45;;;;;;;25.42;14.50;;;7.90;84.00;;;;;;4878336;29;20061;-92
2021/01/28 02:29:11;;;;;;;27.20;14.45;;;7.90;83.90;;;;;;4877793;29;20026;-92
2021/01/28 02:31:37;;;;;;;24.70;14.20;;;7.90;83.90;;;;;;4878477;29;20032;-91
2021/01/28 02:34:06;;;;;;;27.23;15.02;;;8.00;83.90;;;;;;4878134;29;20480;-92
2021/01/28 02:36:35;;;;;;;28.48;15.57;;;7.90;83.90;;;;;;4878024;29;20033;-92
2021/01/28 02:39:02;;;;;;;26.25;15.40;;;7.90;83.90;;;;;;4888572;29;20040;-94
2021/01/28 02:41:28;;;;;;;32.13;17.30;;;7.90;83.90;;;;;;4881162;29;20057;-91
2021/01/28 02:43:57;;;;;;;26.60;15.55;;;7.90;83.90;;;;;;4900358;29;20436;-92
2021/01/28 02:46:23;;;;;;;25.02;14.90;;;7.90;83.90;;;;;;4883676;29;20032;-92
2021/01/28 02:48:50;;;;;;;31.38;16.02;;;7.90;83.80;;;;;;4899221;29;20028;-91
2021/01/28 02:51:16;;;;;;;29.00;15.15;;;7.90;83.80;;;;;;4894764;29;20025;-92
2021/01/28 02:53:48;;;;;;;25.42;15.07;;;7.90;83.80;;;;;;4882330;29;20029;-92
2021/01/28 02:56:14;;;;;;;29.58;16.50;;;7.90;83.80;;;;;;4898753;29;20142;-92
2021/01/28 02:58:40;;;;;;;25.50;14.27;;;7.90;83.90;;;;;;4898991;29;20120;-92
2021/01/28 03:01:08;;;;;;;26.15;14.32;;;7.90;83.90;;;;;;4867632;29;20550;-92
2021/01/28 03:03:36;;;;;;;25.83;15.38;;;7.90;83.90;;;;;;4898728;29;20029;-94
2021/01/28 03:06:02;;;;;;;24.65;14.30;;;7.90;83.90;;;;;;4898899;29;20067;-91
2021/01/28 03:08:29;;;;;;;23.88;14.00;;;7.90;83.90;;;;;;4898971;29;20040;-92
2021/01/28 03:10:55;;;;;;;26.05;14.40;;;7.90;83.90;;;;;;4895507;29;20025;-92
2021/01/28 03:13:21;;;;;;;22.58;13.60;;;7.90;83.90;;;;;;4879772;29;20025;-92
2021/01/28 03:15:48;;;;;;;26.88;14.55;;;7.90;83.90;;;;;;4879965;29;20142;-92
2021/01/28 03:18:13;;;;;;;27.13;14.15;;;7.90;83.90;;;;;;4879536;29;20025;-92
2021/01/28 03:20:39;;;;;;;26.52;14.70;;;7.90;83.90;;;;;;4880463;29;20506;-92
2021/01/28 03:23:07;;;;;;;23.10;13.60;;;7.90;83.90;;;;;;4898191;29;20111;-92
2021/01/28 03:25:33;;;;;;;29.15;15.52;;;7.90;83.90;;;;;;4898626;29;20028;-91
2021/01/28 03:27:58;;;;;;;31.05;15.98;;;7.80;83.80;;;;;;4898468;29;20039;-91
2021/01/28 03:30:30;;;;;;;27.25;15.95;;;7.80;83.80;;;;;;4897420;29;20029;-92
2021/01/28 03:32:56;;;;;;;22.27;13.38;;;7.90;83.90;;;;;;4898292;29;20479;-92
2021/01/28 03:35:23;;;;;;;21.95;12.50;;;7.80;83.90;;;;;;4882546;29;20033;-92
2021/01/28 03:37:49;;;;;;;19.83;12.00;;;7.90;83.90;;;;;;4898271;29;20032;-92
2021/01/28 03:40:17;;;;;;;19.50;12.15;;;7.90;84.00;;;;;;4897854;29;20088;-92
2021/01/28 03:42:42;;;;;;;22.98;13.73;;;7.90;84.00;;;;;;4897766;29;20047;-91
2021/01/28 03:45:09;;;;;;;21.80;13.38;;;7.90;84.00;;;;;;4897871;29;20497;-92
2021/01/28 03:47:38;;;;;;;21.77;13.15;;;7.80;83.90;;;;;;4897966;29;20036;-91
2021/01/28 03:50:06;;;;;;;27.13;13.80;;;7.90;83.90;;;;;;4899123;29;20025;-92
2021/01/28 03:52:32;;;;;;;24.90;15.10;;;7.90;83.90;;;;;;4883471;29;20033;-91
2021/01/28 03:54:57;;;;;;;26.42;15.20;;;7.80;83.80;;;;;;4880580;29;20025;-92
2021/01/28 03:57:23;;;;;;;24.17;14.27;;;7.90;83.90;;;;;;4880426;29;20479;-91
2021/01/28 03:59:49;;;;;;;27.25;15.00;;;7.90;83.90;;;;;;4864519;29;20029;-92
2021/01/28 04:02:17;;;;;;;23.42;14.07;;;7.90;83.90;;;;;;4865369;29;20033;-94
2021/01/28 04:04:43;;;;;;;21.38;13.05;;;7.90;83.90;;;;;;4876843;29;20033;-94
2021/01/28 04:07:09;;;;;;;22.30;14.77;;;7.90;83.90;;;;;;4896015;29;20403;-94
2021/01/28 04:09:52;;;;;;;18.48;12.90;;;7.90;83.90;;;;;;4900625;29;20391;-94
2021/01/28 04:12:30;;;;;;;;;;;;;;;;;;;;;
2021/01/28 04:17:59;;;;;;;16.40;11.10;;;7.90;83.90;;;;;;4817583;29;20125;-91
2021/01/28 04:20:38;;;;;;;;;;;;;;;;;;;;;
2021/01/28 04:23:05;;;;;;;15.15;10.93;;;7.90;83.90;;;;;;4859309;29;20051;-92
2021/01/28 04:25:31;;;;;;;16.75;11.60;;;7.80;84.40;;;;;;4880901;29;20480;-92
2021/01/28 04:27:57;;;;;;;18.02;12.02;;;7.80;83.80;;;;;;4865322;29;20033;-94
2021/01/28 04:30:31;;;;;;;20.10;13.95;;;7.80;83.80;;;;;;4880923;29;20120;-95
2021/01/28 04:32:58;;;;;;;16.80;11.63;;;7.80;83.80;;;;;;4879683;29;20029;-95
2021/01/28 04:42:38;;;;;;;12.90;9.60;;;7.80;83.80;;;;;;4826804;29;20099;-92
2021/01/28 04:45:05;;;;;;;14.05;9.32;;;7.80;83.80;;;;;;4898365;29;20036;-92
2021/01/28 04:47:31;;;;;;;13.32;9.45;;;7.80;83.80;;;;;;4898389;29;20033;-93
2021/01/28 04:49:59;;;;;;;10.23;7.70;;;7.80;83.90;;;;;;4891981;29;20033;-93
2021/01/28 04:52:32;;;;;;;10.48;7.45;;;7.80;83.90;;;;;;4880221;29;20065;-92
2021/01/28 04:54:58;;;;;;;9.88;7.65;;;7.80;83.90;;;;;;4879892;29;20029;-93
2021/01/28 04:57:23;;;;;;;9.63;6.90;;;7.80;83.90;;;;;;4881085;29;20029;-89
2021/01/28 04:59:52;;;;;;;8.85;6.70;;;7.80;83.90;;;;;;4889824;29;20115;-89
2021/01/28 05:02:22;;;;;;;8.40;5.90;;;7.80;83.90;;;;;;4890187;29;20043;-89
2021/01/28 05:04:56;;;;;;;7.65;5.95;;;7.80;83.90;;;;;;4876376;29;20119;-89
2021/01/28 05:07:35;;;;;;;8.75;7.28;;;7.80;83.90;;;;;;4877817;29;20035;-89
2021/01/28 05:10:05;;;;;;;9.05;6.63;;;7.80;83.80;;;;;;4886673;29;20025;-89
2021/01/28 05:12:34;;;;;;;7.63;6.18;;;7.80;83.80;;;;;;4881702;29;20033;-90
2021/01/28 05:15:17;;;;;;;7.70;6.22;;;7.90;83.90;;;;;;4878771;29;20033;-93
2021/01/28 05:17:54;;;;;;;8.60;6.40;;;7.80;83.80;;;;;;4878063;29;20491;-92
2021/01/28 05:20:22;;;;;;;7.75;6.22;;;7.80;83.80;;;;;;4890055;29;20554;-91
2021/01/28 05:23:13;;;;;;;9.25;6.18;;;7.80;83.90;;;;;;4876216;29;20033;-92
2021/01/28 05:25:41;;;;;;;8.48;6.43;;;7.80;83.90;;;;;;4876695;29;20037;-92
2021/01/28 05:28:34;;;;;;;7.80;6.15;;;7.80;83.90;;;;;;4876740;29;20025;-92
2021/01/28 05:31:03;;;;;;;8.43;6.60;;;7.90;84.00;;;;;;4878366;29;20029;-91
2021/01/28 05:33:40;;;;;;;9.65;7.32;;;7.80;83.90;;;;;;4861866;29;20033;-91
2021/01/28 05:36:15;;;;;;;10.60;7.85;;;7.80;83.90;;;;;;4877793;29;20052;-91
2021/01/28 05:38:48;;;;;;;9.18;6.70;;;7.80;83.80;;;;;;4889103;29;20036;-91
2021/01/28 05:41:34;;;;;;;12.80;9.32;;;7.90;83.80;;;;;;4894545;29;20108;-92
2021/01/28 05:44:14;;;;;;;11.20;8.68;;;7.90;83.80;;;;;;4896346;29;20028;-91
2021/01/28 05:46:40;;;;;;;12.93;9.32;;;7.90;83.70;;;;;;4868726;29;20033;-90
2021/01/28 05:49:20;;;;;;;14.00;9.82;;;7.80;83.70;;;;;;4877909;29;20036;-90
2021/01/28 05:51:46;;;;;;;12.73;9.90;;;7.90;83.80;;;;;;4877462;29;20036;-92
2021/01/28 06:20:57;;;;;;;10.77;8.38;;;7.80;83.90;;;;;;4921555;29;20052;-95
2021/01/28 06:24:10;;;;;;;10.27;7.47;;;7.90;84.00;;;;;;4905139;29;20029;-95
2021/01/28 06:27:20;;;;;;;9.02;7.05;;;7.90;84.00;;;;;;4817145;29;20035;-96
2021/01/28 06:30:06;;;;;;;8.63;6.82;;;7.80;83.90;;;;;;4909402;29;20028;-96
2021/01/28 06:33:02;;;;;;;8.82;6.60;;;7.80;83.90;;;;;;4899124;29;20060;-95
2021/01/28 06:36:09;;;;;;;7.50;5.97;;;7.80;83.90;;;;;;4915376;29;20066;-96
2021/01/28 06:39:16;;;;;;;7.57;5.70;;;7.90;84.10;;;;;;4921861;29;20039;-95
2021/01/28 06:47:27;;;;;;;8.60;5.82;;;7.80;84.10;;;;;;5390390;23;20079;-96
2021/01/28 06:57:13;;;;;;;;;;;;;;;;;;;;;
2021/01/28 07:00:15;;;;;;;6.15;4.95;;;7.80;84.30;;;;;;4929900;29;20554;-89
2021/01/28 07:03:03;;;;;;;7.05;4.90;;;7.80;84.30;;;;;;4883603;29;20065;-90
2021/01/28 07:05:59;;;;;;;7.63;5.68;;;7.80;84.40;;;;;;4903805;29;20115;-89
2021/01/28 07:08:39;;;;;;;6.65;4.78;;;7.80;84.30;;;;;;4903712;29;20044;-90
2021/01/28 07:11:05;;;;;;;6.97;5.10;;;7.80;84.30;;;;;;4904451;29;20023;-88
2021/01/28 07:13:37;;;;;;;6.20;5.03;;;7.80;84.40;;;;;;4888238;29;20032;-88
2021/01/28 07:16:36;;;;;;;6.60;4.90;;;7.80;84.40;;;;;;4903609;29;20030;-89
2021/01/28 07:19:16;;;;;;;6.25;4.63;;;7.80;84.50;;;;;;4898266;29;20051;-89
2021/01/28 07:21:48;;;;;;;6.47;4.82;;;7.80;84.40;;;;;;4903697;29;20403;-88
2021/01/28 07:24:37;;;;;;;6.00;4.40;;;7.80;84.50;;;;;;4903477;29;20107;-89
2021/01/28 07:27:05;;;;;;;5.80;4.20;;;7.80;84.50;;;;;;4903812;29;20024;-90
2021/01/28 07:29:30;;;;;;;4.20;3.30;;;7.80;84.50;;;;;;4903151;29;20035;-88
2021/01/28 07:32:08;;;;;;;5.53;4.07;;;7.80;84.50;;;;;;4903276;29;20093;-89
2021/01/28 07:34:37;;;;;;;5.53;3.65;;;7.80;84.50;;;;;;4903622;29;20024;-90
2021/01/28 07:37:18;;;;;;;6.13;4.10;;;7.80;84.40;;;;;;4903232;29;20035;-89
2021/01/28 07:39:45;;;;;;;5.18;3.70;;;7.80;84.50;;;;;;4903432;29;20119;-88
2021/01/28 07:42:16;;;;;;;5.32;3.60;;;7.80;84.40;;;;;;4887708;29;20140;-89
2021/01/28 07:44:52;;;;;;;4.28;2.80;;;7.80;84.40;;;;;;4903172;29;20095;-90
2021/01/28 07:47:30;;;;;;;4.05;3.08;;;7.80;84.40;;;;;;4903044;29;20039;-89
2021/01/28 07:50:07;;;;;;;5.40;3.72;;;7.80;84.40;;;;;;4903240;29;20139;-88
2021/01/28 07:52:41;;;;;;;5.38;3.80;;;7.80;84.40;;;;;;4902887;29;20119;-89
2021/01/28 07:55:43;;;;;;;4.50;3.38;;;7.80;84.50;;;;;;4872042;29;20024;-90
2021/01/28 07:58:36;;;;;;;5.18;3.70;;;7.80;84.50;;;;;;4897289;29;20036;-88
2021/01/28 08:01:13;;;;;;;5.22;3.85;;;7.80;84.40;;;;;;4899283;29;20036;-88
2021/01/28 08:03:57;;;;;;;5.05;3.63;;;7.80;84.40;;;;;;4902753;29;20028;-88
2021/01/28 08:06:23;;;;;;;5.15;3.70;;;7.80;84.50;;;;;;4902746;29;20128;-89
2021/01/28 08:09:14;;;;;;;5.80;4.15;;;7.80;84.50;;;;;;4902748;29;20115;-89
2021/01/28 08:11:41;;;;;;;4.00;3.20;;;7.80;84.60;;;;;;4902491;29;20139;-90
2021/01/28 08:14:12;;;;;;;5.40;3.78;;;7.80;84.50;;;;;;4902468;29;20029;-87
2021/01/28 08:16:38;;;;;;;4.88;3.63;;;7.70;84.50;;;;;;4901736;29;20036;-87
2021/01/28 08:19:13;;;;;;;4.82;3.60;;;7.70;84.60;;;;;;4901464;29;20091;-88
2021/01/28 08:21:39;;;;;;;5.03;3.65;;;7.70;84.60;;;;;;4901702;29;20032;-87
2021/01/28 08:24:36;;;;;;;3.97;3.20;;;7.70;84.50;;;;;;4901657;29;20036;-87
2021/01/28 08:27:26;;;;;;;5.50;3.58;;;7.80;84.50;;;;;;4901298;29;20032;-87
2021/01/28 08:30:05;;;;;;;4.28;2.90;;;7.80;84.50;;;;;;4901513;29;20028;-90
2021/01/28 08:32:32;;;;;;;4.50;3.60;;;7.70;84.40;;;;;;4902640;29;20024;-90
2021/01/28 08:35:08;;;;;;;7.28;4.20;;;7.70;84.40;;;;;;4899074;29;20491;-90
2021/01/28 08:37:35;;;;;;;5.90;3.95;;;7.70;84.40;;;;;;4887901;29;20028;-89
2021/01/28 08:40:03;;;;;;;4.97;3.70;;;7.70;84.40;;;;;;4896461;29;20035;-89
2021/01/28 08:42:49;;;;;;;5.88;4.05;;;7.70;84.40;;;;;;4883845;29;20032;-90
2021/01/28 08:45:29;;;;;;;5.32;3.47;;;7.70;84.50;;;;;;4901671;29;20135;-89
2021/01/28 08:48:00;;;;;;;5.93;4.35;;;7.70;84.50;;;;;;4898522;29;20049;-89
2021/01/28 08:50:28;;;;;;;6.95;4.28;;;7.70;84.50;;;;;;4896033;29;20117;-89
2021/01/28 08:53:03;;;;;;;5.75;4.43;;;7.70;84.50;;;;;;4898560;29;20467;-89
2021/01/28 08:55:35;;;;;;;5.10;3.72;;;7.70;84.60;;;;;;4898788;29;20032;-88
2021/01/28 08:58:17;;;;;;;5.65;3.92;;;7.70;84.60;;;;;;4898458;29;20040;-91
2021/01/28 09:00:49;;;;;;;6.18;3.45;;;7.70;84.60;;;;;;4892554;29;20084;-87
2021/01/28 09:03:41;;;;;;;4.55;3.38;;;7.70;85.20;;;;;;4880950;29;20044;-89
2021/01/28 09:06:07;;;;;;;5.50;3.92;;;7.70;84.60;;;;;;4888561;29;20032;-89
2021/01/28 09:08:44;;;;;;;5.20;3.80;;;7.70;84.60;;;;;;4879483;29;20048;-89
2021/01/28 09:11:27;;;;;;;5.38;4.00;;;7.70;84.60;;;;;;4879404;29;20036;-88
2021/01/28 09:14:17;;;;;;;4.40;3.50;;;7.70;84.60;;;;;;4879118;29;20037;-89
2021/01/28 09:17:04;;;;;;;5.85;4.35;;;7.60;84.60;;;;;;4878602;29;20025;-89
2021/01/28 09:19:33;;;;;;;4.93;3.63;;;7.70;84.70;;;;;;4879349;29;20033;-88
2021/01/28 09:22:03;;;;;;;5.60;4.25;;;7.60;84.50;;;;;;4893439;29;20028;-89
2021/01/28 09:24:46;;;;;;;5.57;4.53;;;7.70;84.60;;;;;;4897428;29;20039;-88
2021/01/28 09:27:15;;;;;;;4.85;3.70;;;7.60;84.50;;;;;;4897193;29;20035;-89
2021/01/28 09:29:42;;;;;;;4.22;3.55;;;7.60;84.50;;;;;;4889435;29;20040;-89
2021/01/28 09:32:13;;;;;;;4.80;3.15;;;7.60;84.50;;;;;;4863221;29;20041;-89
2021/01/28 09:34:39;;;;;;;4.10;3.22;;;7.60;84.50;;;;;;4879308;29;20087;-89
2021/01/28 09:37:14;;;;;;;3.60;2.90;;;7.60;84.50;;;;;;4878855;29;20040;-90
2021/01/28 09:39:46;;;;;;;3.85;2.85;;;7.60;84.50;;;;;;4879047;29;20033;-89
2021/01/28 09:42:34;;;;;;;3.33;2.83;;;7.60;84.50;;;;;;4879229;29;20033;-88
2021/01/28 09:45:06;;;;;;;5.57;3.75;;;7.60;84.50;;;;;;4878927;29;20037;-88
2021/01/28 09:47:32;;;;;;;4.93;3.50;;;7.60;84.60;;;;;;4880743;29;20073;-88
2021/01/28 09:50:19;;;;;;;4.68;3.80;;;7.60;84.60;;;;;;4889129;29;20036;-90
2021/01/28 09:52:47;;;;;;;4.95;3.92;;;7.60;84.70;;;;;;4902018;29;20071;-89
2021/01/28 09:55:20;;;;;;;3.97;2.93;;;7.60;84.60;;;;;;4904580;29;20032;-88
2021/01/28 09:57:46;;;;;;;4.20;2.83;;;7.60;84.70;;;;;;4904322;29;20276;-89
2021/01/28 10:00:15;;;;;;;4.07;3.33;;;7.60;84.60;;;;;;4904451;29;20032;-89
2021/01/28 10:03:04;;;;;;;4.22;3.20;;;7.60;84.60;;;;;;4898842;29;20032;-89
2021/01/28 10:05:33;;;;;;;4.10;3.58;;;7.60;84.60;;;;;;4885582;29;20021;-89
2021/01/28 10:07:59;;;;;;;5.47;3.22;;;7.60;84.60;;;;;;4885197;29;20499;-89
2021/01/28 10:10:30;;;;;;;3.80;3.28;;;7.60;84.60;;;;;;4869878;29;20084;-88
2021/01/28 10:13:08;;;;;;;3.97;3.30;;;7.60;84.60;;;;;;4884975;29;20028;-90
2021/01/28 10:15:34;;;;;;;3.75;3.35;;;7.60;84.60;;;;;;4885220;29;20029;-90
2021/01/28 10:18:00;;;;;;;4.15;3.33;;;7.60;84.60;;;;;;4869817;29;20093;-91
2021/01/28 10:20:26;;;;;;;3.75;3.13;;;7.60;84.60;;;;;;4885553;29;20139;-90
2021/01/28 10:22:53;;;;;;;3.90;3.17;;;7.60;84.70;;;;;;4869911;29;20061;-89
2021/01/28 10:25:23;;;;;;;4.47;3.50;;;7.60;84.70;;;;;;4870100;29;20043;-89
2021/01/28 10:27:49;;;;;;;3.58;3.13;;;7.70;84.80;;;;;;4884484;29;20041;-89
2021/01/28 10:30:17;;;;;;;4.15;3.40;;;7.70;84.80;;;;;;4887654;29;20031;-89
2021/01/28 10:32:47;;;;;;;3.90;3.50;;;7.70;84.80;;;;;;4903049;29;20040;-88
2021/01/28 10:35:19;;;;;;;4.22;3.50;;;7.70;85.00;;;;;;4898878;29;20020;-89
2021/01/28 10:37:45;;;;;;;4.20;3.10;;;7.70;85.00;;;;;;4886169;29;20051;-90
2021/01/28 10:40:14;;;;;;;4.10;3.10;;;7.70;85.00;;;;;;4888062;29;20526;-89
2021/01/28 10:42:42;;;;;;;3.55;3.10;;;7.70;85.00;;;;;;4884905;29;20033;-88
2021/01/28 10:45:20;;;;;;;2.67;2.47;;;7.70;85.00;;;;;;4884684;29;20040;-89
2021/01/28 10:47:46;;;;;;;3.55;2.90;;;7.70;85.00;;;;;;4885027;29;20048;-88
2021/01/28 10:50:13;;;;;;;3.08;2.60;;;7.70;85.00;;;;;;4887717;29;20035;-89
2021/01/28 10:52:39;;;;;;;3.08;2.63;;;7.70;85.10;;;;;;4903448;29;20035;-89
2021/01/28 10:55:08;;;;;;;3.22;2.80;;;7.70;85.10;;;;;;4870413;29;20028;-88
2021/01/28 10:57:34;;;;;;;2.90;2.40;;;7.70;85.10;;;;;;4901133;29;20149;-93
2021/01/28 11:00:00;;;;;;;3.53;2.65;;;7.70;85.10;;;;;;4872585;29;20048;-93
2021/01/28 11:02:25;;;;;;;3.00;2.47;;;7.70;85.20;;;;;;4887132;29;20596;-93
2021/01/28 11:04:54;;;;;;;2.45;2.10;;;7.70;85.10;;;;;;4888800;29;20028;-93
2021/01/28 11:07:19;;;;;;;3.20;2.60;;;7.80;85.10;;;;;;4889633;29;20043;-92
2021/01/28 11:09:45;;;;;;;3.03;2.60;;;7.80;85.10;;;;;;4901140;29;20115;-93
2021/01/28 11:12:11;;;;;;;3.40;2.53;;;7.80;85.20;;;;;;4888319;29;20028;-93
2021/01/28 11:14:36;;;;;;;2.65;2.08;;;7.80;85.20;;;;;;4888165;29;20060;-93
2021/01/28 11:17:02;;;;;;;3.20;2.40;;;7.80;85.10;;;;;;4903416;29;20031;-93
2021/01/28 11:19:28;;;;;;;3.15;2.45;;;7.90;85.10;;;;;;4872566;29;20123;-93
2021/01/28 11:21:54;;;;;;;2.83;2.40;;;7.90;85.10;;;;;;4888061;29;20043;-93
2021/01/28 11:24:19;;;;;;;3.50;2.53;;;7.90;85.00;;;;;;4904073;29;20044;-93
2021/01/28 11:26:45;;;;;;;2.42;2.05;;;7.90;85.00;;;;;;4888147;29;20125;-92
2021/01/28 11:29:11;;;;;;;2.50;2.30;;;7.90;84.90;;;;;;4903443;29;20028;-92
2021/01/28 11:31:36;;;;;;;2.50;2.10;;;8.00;84.90;;;;;;4887661;29;20032;-92
2021/01/28 11:34:03;;;;;;;3.17;2.67;;;8.00;84.80;;;;;;4871867;29;20036;-93
2021/01/28 11:36:29;;;;;;;2.97;2.67;;;8.00;84.80;;;;;;4887685;29;20497;-92
2021/01/28 11:38:55;;;;;;;3.10;2.60;;;8.00;84.70;;;;;;4880464;29;20119;-93
2021/01/28 11:41:21;;;;;;;3.33;2.80;;;8.00;85.40;;;;;;4884708;29;20059;-93
2021/01/28 11:43:46;;;;;;;2.90;2.20;;;8.00;84.80;;;;;;4853630;29;20033;-92
2021/01/28 11:46:21;;;;;;;2.70;2.25;;;8.10;84.80;;;;;;4878737;29;20037;-93
2021/01/28 11:48:46;;;;;;;4.30;2.53;;;8.10;84.70;;;;;;4884515;29;20052;-92
2021/01/28 11:51:12;;;;;;;3.13;2.58;;;8.10;84.70;;;;;;4884934;29;20028;-93
2021/01/28 11:53:38;;;;;;;2.65;2.40;;;8.10;84.80;;;;;;4869991;29;20444;-92
2021/01/28 11:56:04;;;;;;;2.97;2.38;;;8.10;84.80;;;;;;4887188;24;20064;-89
2021/01/28 11:58:29;;;;;;;2.50;2.30;;;8.10;84.80;;;;;;4902106;29;20035;-90
2021/01/28 12:00:55;;;;;;;3.30;2.60;;;8.10;84.80;;;;;;4885376;29;20039;-89
2021/01/28 12:03:21;;;;;;;2.58;2.25;;;8.10;84.80;;;;;;4900208;29;20031;-89
2021/01/28 12:05:47;;;;;;;2.65;2.13;;;8.20;84.80;;;;;;4890514;29;20111;-90
2021/01/28 12:08:13;;;;;;;2.95;2.20;;;8.20;84.80;;;;;;4897939;29;20036;-89
2021/01/28 12:10:38;;;;;;;2.42;2.05;;;8.20;84.80;;;;;;4901408;29;20028;-89
2021/01/28 12:13:04;;;;;;;3.55;2.50;;;8.20;84.70;;;;;;4900971;29;20032;-89
2021/01/28 12:15:30;;;;;;;2.50;2.20;;;8.20;84.70;;;;;;4901067;29;20048;-89
2021/01/28 12:17:56;;;;;;;3.08;2.30;;;8.30;84.80;;;;;;4882901;29;20068;-90
2021/01/28 12:20:25;;;;;;;3.72;2.78;;;8.30;84.80;;;;;;4883258;29;20051;-90
2021/01/28 12:22:51;;;;;;;;;;;8.30;84.70;;;;;;4883205;29;20068;-89
2021/01/28 12:25:18;;;;;;;2.83;2.22;;;8.30;84.60;;;;;;4883183;29;19919;-89
2021/01/28 12:27:44;;;;;;;2.42;1.95;;;8.30;84.70;;;;;;4867568;29;20503;-90
2021/01/28 12:30:15;;;;;;;2.25;1.77;;;8.30;84.80;;;;;;4882792;29;20031;-89
2021/01/28 12:32:40;;;;;;;2.33;1.85;;;8.30;84.70;;;;;;4868055;29;20039;-89
2021/01/28 12:35:07;;;;;;;2.20;1.70;;;8.30;84.70;;;;;;4882865;29;20406;-90
2021/01/28 12:37:33;;;;;;;2.22;1.90;;;8.40;84.70;;;;;;4867603;29;20128;-89
2021/01/28 12:39:59;;;;;;;2.28;1.90;;;8.30;84.60;;;;;;4883180;29;20123;-90
2021/01/28 12:42:25;;;;;;;2.10;1.63;;;8.40;84.60;;;;;;4883270;29;20386;-89
2021/01/28 12:44:52;;;;;;;2.50;1.73;;;8.40;84.60;;;;;;4883462;29;20077;-91
2021/01/28 12:47:18;;;;;;;3.72;2.17;;;8.40;84.60;;;;;;4882691;29;20029;-91
2021/01/28 12:49:45;;;;;;;3.17;2.10;;;8.40;84.60;;;;;;4883023;29;20119;-91
2021/01/28 12:52:10;;;;;;;3.50;2.22;;;8.40;84.60;;;;;;4852228;29;20028;-90
2021/01/28 12:54:36;;;;;;;2.88;2.20;;;8.50;84.60;;;;;;4852192;29;20475;-92
2021/01/28 12:57:02;;;;;;;2.50;1.80;;;8.40;84.60;;;;;;4883187;29;20535;-90
2021/01/28 12:59:28;;;;;;;2.50;1.90;;;8.50;84.60;;;;;;4882904;29;20049;-91
2021/01/28 13:01:53;;;;;;;2.60;1.55;;;8.40;84.60;;;;;;4867351;29;20040;-91
2021/01/28 13:04:19;;;;;;;2.30;1.85;;;8.50;84.60;;;;;;4866997;29;20029;-90
2021/01/28 13:06:45;;;;;;;2.42;2.08;;;8.50;84.60;;;;;;4866748;29;20036;-89
2021/01/28 13:09:10;;;;;;;2.28;2.03;;;8.50;84.60;;;;;;4882022;29;20024;-88
2021/01/28 13:11:36;;;;;;;2.25;1.83;;;8.40;84.60;;;;;;4882190;29;20032;-89
2021/01/28 13:14:02;;;;;;;2.30;2.08;;;8.50;84.70;;;;;;4882222;29;20025;-89
2021/01/28 13:16:27;;;;;;;2.60;2.03;;;8.40;84.70;;;;;;4867380;29;20500;-89
2021/01/28 13:18:53;;;;;;;3.83;2.20;;;8.40;84.70;;;;;;4866721;29;20047;-87
2021/01/28 13:21:19;;;;;;;2.55;1.98;;;8.50;84.70;;;;;;4850114;29;20025;-87
2021/01/28 13:23:45;;;;;;;2.20;2.00;;;8.50;84.60;;;;;;4868171;29;20563;-86
2021/01/28 13:26:11;;;;;;;2.50;2.28;;;8.50;84.60;;;;;;4864502;29;20120;-87
2021/01/28 13:28:36;;;;;;;4.20;2.65;;;8.50;84.60;;;;;;4865416;29;20547;-87
2021/01/28 13:31:02;;;;;;;2.83;2.30;;;8.50;84.60;;;;;;4865576;29;20033;-87
2021/01/28 13:33:28;;;;;;;2.50;2.30;;;8.50;84.70;;;;;;4880871;29;20021;-86
2021/01/28 13:35:53;;;;;;;2.80;2.20;;;8.50;84.80;;;;;;4880903;29;20033;-86
2021/01/28 13:38:19;;;;;;;2.85;2.38;;;8.50;84.90;;;;;;4867620;29;20071;-87
2021/01/28 13:40:45;;;;;;;2.72;2.17;;;8.40;84.90;;;;;;4883951;29;20456;-87
2021/01/28 13:43:12;;;;;;;2.15;1.92;;;8.40;84.90;;;;;;4898969;29;20036;-87
2021/01/28 13:45:37;;;;;;;2.58;2.35;;;8.40;85.00;;;;;;4899381;29;20032;-86
2021/01/28 13:48:04;;;;;;;2.50;2.10;;;8.40;85.00;;;;;;4867788;29;20040;-87
2021/01/28 13:50:33;;;;;;;2.10;1.85;;;8.40;85.10;;;;;;4898975;29;20115;-86
2021/01/28 13:53:00;;;;;;;2.20;1.90;;;8.50;85.10;;;;;;4899379;29;20027;-86
2021/01/28 13:55:25;;;;;;;1.70;1.60;;;8.50;85.10;;;;;;4883105;29;20135;-86
2021/01/28 13:57:52;;;;;;;2.33;1.58;;;8.50;85.00;;;;;;4875297;29;20176;-87
2021/01/28 14:00:19;;;;;;;1.50;1.40;;;8.50;85.00;;;;;;4864828;29;20048;-86